KAAT

Alturas Municipal Airport

Alturas, California, USA
METAR KAAT 180755Z AUTO 05003KT 8SM CLR M04/M07 A3021 RMK AO2 SLP248 T10391067 400561100 TSNO $
Observed Flight Rules
Dec-18 @ 07:55 UTC (56 minutes ago) Visual Flight Rules
Wind Visibility Clouds
50° at 3 knots 8 miles
  • Clear skies
Temperatures Readings
Current -4°C / 25°F
Dewpoint -7°C / 19°F
Humidity 80%
Altimeter 30.21" Hg
Pressure 1024.8 hPa
Elevation 1331
METAR KAAT 180755Z AUTO 05003KT 8SM CLR M04/M07 A3021 RMK AO2 SLP248 T10391067 400561100 TSNO $
Observed Flight Rules
Dec-18 @ 07:55 UTC
(56 minutes ago)
VFR
Wind Visibility
50° at 3 knots 8 miles
Clouds
  • Clear skies
Temperature Dewpoint
-4°C / 25°F -7°C / 19°F
Humidity Altimeter Pressure
80% 30.21" Hg 1024.8 hPa